sensor_id;sensor_type;location;lat;lon;timestamp;pressure;altitude;pressure_sealevel;temperature;humidity
52719;BME280;38616;42.140;24.760;2023-02-01T00:01:06;99701.94;;;3.93;55.02
52719;BME280;38616;42.140;24.760;2023-02-01T00:03:32;99719.78;;;3.99;54.79
52719;BME280;38616;42.140;24.760;2023-02-01T00:05:58;99726.56;;;3.78;54.86
52719;BME280;38616;42.140;24.760;2023-02-01T00:08:24;99717.34;;;3.86;54.85
52719;BME280;38616;42.140;24.760;2023-02-01T00:11:00;99719.44;;;3.95;54.85
52719;BME280;38616;42.140;24.760;2023-02-01T00:13:31;99722.13;;;3.83;54.24
52719;BME280;38616;42.140;24.760;2023-02-01T00:16:07;99721.31;;;4.07;53.88
52719;BME280;38616;42.140;24.760;2023-02-01T00:18:34;99727.63;;;4.12;53.38
52719;BME280;38616;42.140;24.760;2023-02-01T00:20:59;99730.66;;;3.92;54.10
52719;BME280;38616;42.140;24.760;2023-02-01T00:23:25;99724.94;;;4.24;53.40
52719;BME280;38616;42.140;24.760;2023-02-01T00:25:51;99714.28;;;4.29;53.13
52719;BME280;38616;42.140;24.760;2023-02-01T00:28:16;99732.41;;;4.22;53.54
52719;BME280;38616;42.140;24.760;2023-02-01T00:30:41;99708.91;;;4.29;53.17
52719;BME280;38616;42.140;24.760;2023-02-01T00:33:07;99729.09;;;4.44;52.72
52719;BME280;38616;42.140;24.760;2023-02-01T00:35:35;99732.75;;;4.38;53.00
52719;BME280;38616;42.140;24.760;2023-02-01T00:38:01;99729.13;;;4.32;53.02
52719;BME280;38616;42.140;24.760;2023-02-01T00:40:26;99730.19;;;4.31;53.22
52719;BME280;38616;42.140;24.760;2023-02-01T00:42:52;99721.88;;;4.21;53.59
52719;BME280;38616;42.140;24.760;2023-02-01T00:45:18;99734.97;;;4.05;53.44
52719;BME280;38616;42.140;24.760;2023-02-01T00:47:43;99730.91;;;4.26;53.24
52719;BME280;38616;42.140;24.760;2023-02-01T00:50:09;99734.06;;;4.23;53.29
52719;BME280;38616;42.140;24.760;2023-02-01T00:52:35;99727.03;;;4.22;53.17
52719;BME280;38616;42.140;24.760;2023-02-01T00:55:01;99731.94;;;4.02;53.73
52719;BME280;38616;42.140;24.760;2023-02-01T00:57:26;99733.81;;;4.01;53.33
52719;BME280;38616;42.140;24.760;2023-02-01T00:59:51;99715.59;;;3.79;54.00
52719;BME280;38616;42.140;24.760;2023-02-01T01:02:17;99723.06;;;3.89;54.31
52719;BME280;38616;42.140;24.760;2023-02-01T01:04:42;99724.69;;;4.02;53.76
52719;BME280;38616;42.140;24.760;2023-02-01T01:07:08;99717.47;;;3.91;54.07
52719;BME280;38616;42.140;24.760;2023-02-01T01:09:34;99710.19;;;3.67;54.39
52719;BME280;38616;42.140;24.760;2023-02-01T01:11:59;99716.25;;;3.75;54.29
52719;BME280;38616;42.140;24.760;2023-02-01T01:14:30;99716.63;;;4.14;53.30
52719;BME280;38616;42.140;24.760;2023-02-01T01:16:56;99710.44;;;4.13;53.38
52719;BME280;38616;42.140;24.760;2023-02-01T01:19:22;99712.66;;;4.17;53.17
52719;BME280;38616;42.140;24.760;2023-02-01T01:21:47;99703.44;;;3.89;54.29
52719;BME280;38616;42.140;24.760;2023-02-01T01:24:13;99715.47;;;4.10;53.96
52719;BME280;38616;42.140;24.760;2023-02-01T01:26:38;99715.56;;;4.03;54.06
52719;BME280;38616;42.140;24.760;2023-02-01T01:29:04;99728.56;;;4.18;53.66
52719;BME280;38616;42.140;24.760;2023-02-01T01:31:30;99722.47;;;3.87;53.96
52719;BME280;38616;42.140;24.760;2023-02-01T01:33:58;99717.34;;;4.21;53.63
52719;BME280;38616;42.140;24.760;2023-02-01T01:36:24;99715.47;;;4.34;52.95
52719;BME280;38616;42.140;24.760;2023-02-01T01:38:49;99719.91;;;4.16;53.33
52719;BME280;38616;42.140;24.760;2023-02-01T01:41:19;99717.91;;;4.35;53.17
52719;BME280;38616;42.140;24.760;2023-02-01T01:43:56;99717.66;;;4.49;53.13
52719;BME280;38616;42.140;24.760;2023-02-01T01:46:28;99714.88;;;4.32;52.81
52719;BME280;38616;42.140;24.760;2023-02-01T01:49:17;99720.00;;;4.09;53.42
52719;BME280;38616;42.140;24.760;2023-02-01T01:51:55;99725.63;;;4.08;53.69
52719;BME280;38616;42.140;24.760;2023-02-01T01:54:38;99729.72;;;3.98;53.81
52719;BME280;38616;42.140;24.760;2023-02-01T01:57:08;99722.56;;;4.28;53.19
52719;BME280;38616;42.140;24.760;2023-02-01T01:59:35;99720.00;;;4.33;53.11
52719;BME280;38616;42.140;24.760;2023-02-01T02:02:03;99712.09;;;3.91;53.89
52719;BME280;38616;42.140;24.760;2023-02-01T02:04:29;99726.22;;;3.86;54.03
52719;BME280;38616;42.140;24.760;2023-02-01T02:07:04;99705.88;;;3.90;53.53
52719;BME280;38616;42.140;24.760;2023-02-01T02:09:30;99722.13;;;3.95;54.08
52719;BME280;38616;42.140;24.760;2023-02-01T02:11:56;99715.22;;;3.99;53.94
52719;BME280;38616;42.140;24.760;2023-02-01T02:14:23;99725.75;;;4.01;53.56
52719;BME280;38616;42.140;24.760;2023-02-01T02:17:06;99722.72;;;3.97;53.75
52719;BME280;38616;42.140;24.760;2023-02-01T02:22:35;99734.97;;;4.05;53.30
52719;BME280;38616;42.140;24.760;2023-02-01T02:41:32;99732.41;;;3.87;53.19
52719;BME280;38616;42.140;24.760;2023-02-01T02:47:15;99738.03;;;3.97;53.34
52719;BME280;38616;42.140;24.760;2023-02-01T02:49:56;99733.81;;;4.01;53.47
52719;BME280;38616;42.140;24.760;2023-02-01T02:52:47;99726.22;;;4.10;52.97
52719;BME280;38616;42.140;24.760;2023-02-01T02:55:35;99733.34;;;4.04;53.28
52719;BME280;38616;42.140;24.760;2023-02-01T02:58:05;99729.47;;;4.00;53.88
52719;BME280;38616;42.140;24.760;2023-02-01T03:00:50;99729.84;;;3.92;53.65
52719;BME280;38616;42.140;24.760;2023-02-01T03:03:38;99729.16;;;3.84;54.14
52719;BME280;38616;42.140;24.760;2023-02-01T03:06:23;99724.00;;;3.71;54.11
52719;BME280;38616;42.140;24.760;2023-02-01T03:08:49;99713.81;;;3.85;53.86
52719;BME280;38616;42.140;24.760;2023-02-01T03:11:20;99728.69;;;3.88;53.82
52719;BME280;38616;42.140;24.760;2023-02-01T03:16:21;99707.81;;;3.59;54.61
52719;BME280;38616;42.140;24.760;2023-02-01T03:21:29;99728.69;;;3.88;54.33
52719;BME280;38616;42.140;24.760;2023-02-01T03:24:01;99722.38;;;3.94;53.90
52719;BME280;38616;42.140;24.760;2023-02-01T03:26:28;99736.00;;;3.68;54.16
52719;BME280;38616;42.140;24.760;2023-02-01T03:28:59;99740.19;;;3.64;54.97
52719;BME280;38616;42.140;24.760;2023-02-01T03:31:28;99728.66;;;3.64;54.80
52719;BME280;38616;42.140;24.760;2023-02-01T03:33:54;99741.00;;;3.53;55.48
52719;BME280;38616;42.140;24.760;2023-02-01T03:36:26;99730.75;;;3.62;55.22
52719;BME280;38616;42.140;24.760;2023-02-01T03:39:09;99735.66;;;3.53;55.60
52719;BME280;38616;42.140;24.760;2023-02-01T03:41:47;99737.28;;;3.66;55.47
52719;BME280;38616;42.140;24.760;2023-02-01T03:46:47;99730.66;;;3.92;54.79
52719;BME280;38616;42.140;24.760;2023-02-01T03:49:32;99724.34;;;3.87;54.64
52719;BME280;38616;42.140;24.760;2023-02-01T03:52:00;99734.81;;;3.64;55.39
52719;BME280;38616;42.140;24.760;2023-02-01T03:54:27;99731.53;;;3.38;55.67
52719;BME280;38616;42.140;24.760;2023-02-01T03:56:55;99726.34;;;3.25;56.30
52719;BME280;38616;42.140;24.760;2023-02-01T03:59:21;99736.50;;;3.35;56.60
52719;BME280;38616;42.140;24.760;2023-02-01T04:01:47;99733.69;;;3.30;56.61
52719;BME280;38616;42.140;24.760;2023-02-01T04:04:12;99739.28;;;3.70;55.76
52719;BME280;38616;42.140;24.760;2023-02-01T04:06:46;99747.13;;;3.72;55.68
52719;BME280;38616;42.140;24.760;2023-02-01T04:09:11;99740.53;;;3.56;56.23
52719;BME280;38616;42.140;24.760;2023-02-01T04:11:37;99725.38;;;3.62;56.19
52719;BME280;38616;42.140;24.760;2023-02-01T04:14:02;99739.38;;;3.64;56.02
52719;BME280;38616;42.140;24.760;2023-02-01T04:16:32;99738.34;;;3.53;56.19
52719;BME280;38616;42.140;24.760;2023-02-01T04:18:58;99754.91;;;3.50;56.51
52719;BME280;38616;42.140;24.760;2023-02-01T04:21:25;99750.19;;;3.33;56.13
52719;BME280;38616;42.140;24.760;2023-02-01T04:23:51;99764.06;;;3.30;56.21
52719;BME280;38616;42.140;24.760;2023-02-01T04:26:16;99754.91;;;3.50;56.05
52719;BME280;38616;42.140;24.760;2023-02-01T04:28:42;99767.03;;;3.40;55.85
52719;BME280;38616;42.140;24.760;2023-02-01T04:31:07;99772.97;;;3.43;55.43
52719;BME280;38616;42.140;24.760;2023-02-01T04:33:33;99767.81;;;3.41;55.33
52719;BME280;38616;42.140;24.760;2023-02-01T04:35:59;99772.41;;;3.40;54.73
52719;BME280;38616;42.140;24.760;2023-02-01T04:38:24;99780.34;;;3.17;55.34
52719;BME280;38616;42.140;24.760;2023-02-01T04:40:49;99779.59;;;3.28;55.31
52719;BME280;38616;42.140;24.760;2023-02-01T04:43:16;99782.47;;;3.27;54.82
52719;BME280;38616;42.140;24.760;2023-02-01T04:45:47;99776.47;;;3.43;54.21
52719;BME280;38616;42.140;24.760;2023-02-01T04:48:12;99762.31;;;3.36;54.19
52719;BME280;38616;42.140;24.760;2023-02-01T04:50:38;99773.81;;;3.55;53.82
52719;BME280;38616;42.140;24.760;2023-02-01T04:53:03;99790.66;;;3.32;53.62
52719;BME280;38616;42.140;24.760;2023-02-01T04:55:29;99785.84;;;3.52;54.04
52719;BME280;38616;42.140;24.760;2023-02-01T04:57:54;99780.69;;;3.20;54.08
52719;BME280;38616;42.140;24.760;2023-02-01T05:00:20;99770.66;;;3.16;54.34
52719;BME280;38616;42.140;24.760;2023-02-01T05:02:46;99769.88;;;3.27;53.96
52719;BME280;38616;42.140;24.760;2023-02-01T05:05:11;99773.25;;;3.22;53.76
52719;BME280;38616;42.140;24.760;2023-02-01T05:07:36;99791.63;;;3.07;53.73
52719;BME280;38616;42.140;24.760;2023-02-01T05:10:02;99769.31;;;3.06;53.61
52719;BME280;38616;42.140;24.760;2023-02-01T05:12:27;99772.00;;;3.06;53.48
52719;BME280;38616;42.140;24.760;2023-02-01T05:15:11;99796.47;;;3.17;53.19
52719;BME280;38616;42.140;24.760;2023-02-01T05:17:37;99798.72;;;3.01;53.60
52719;BME280;38616;42.140;24.760;2023-02-01T05:20:02;99798.69;;;3.20;53.42
52719;BME280;38616;42.140;24.760;2023-02-01T05:22:28;99791.88;;;3.17;52.76
52719;BME280;38616;42.140;24.760;2023-02-01T05:24:53;99790.63;;;3.20;52.29
52719;BME280;38616;42.140;24.760;2023-02-01T05:27:19;99779.66;;;3.21;52.82
52719;BME280;38616;42.140;24.760;2023-02-01T05:29:44;99785.69;;;3.35;52.12
52719;BME280;38616;42.140;24.760;2023-02-01T05:32:10;99776.91;;;3.70;51.20
52719;BME280;38616;42.140;24.760;2023-02-01T05:34:36;99774.00;;;3.72;51.24
52719;BME280;38616;42.140;24.760;2023-02-01T05:37:02;99768.38;;;3.74;51.29
52719;BME280;38616;42.140;24.760;2023-02-01T05:39:27;99766.66;;;3.91;50.90
52719;BME280;38616;42.140;24.760;2023-02-01T05:41:52;99781.19;;;4.14;50.58
52719;BME280;38616;42.140;24.760;2023-02-01T05:44:18;99782.56;;;4.05;50.44
52719;BME280;38616;42.140;24.760;2023-02-01T05:46:44;99779.50;;;3.77;50.98
52719;BME280;38616;42.140;24.760;2023-02-01T05:49:09;99778.06;;;3.75;51.32
52719;BME280;38616;42.140;24.760;2023-02-01T05:51:35;99783.19;;;3.64;52.20
52719;BME280;38616;42.140;24.760;2023-02-01T05:54:00;99783.59;;;3.37;52.04
52719;BME280;38616;42.140;24.760;2023-02-01T05:56:26;99779.28;;;3.48;51.97
52719;BME280;38616;42.140;24.760;2023-02-01T05:58:51;99783.19;;;3.64;51.71
52719;BME280;38616;42.140;24.760;2023-02-01T06:01:16;99781.81;;;3.74;51.10
52719;BME280;38616;42.140;24.760;2023-02-01T06:03:42;99779.44;;;3.65;50.96
52719;BME280;38616;42.140;24.760;2023-02-01T06:06:07;99772.94;;;3.73;51.27
52719;BME280;38616;42.140;24.760;2023-02-01T06:08:33;99772.44;;;3.64;50.13
52719;BME280;38616;42.140;24.760;2023-02-01T06:11:03;99784.50;;;3.74;50.15
52719;BME280;38616;42.140;24.760;2023-02-01T06:13:30;99782.31;;;3.94;49.71
52719;BME280;38616;42.140;24.760;2023-02-01T06:15:56;99787.63;;;3.70;49.23
52719;BME280;38616;42.140;24.760;2023-02-01T06:18:25;99792.34;;;3.87;48.92
52719;BME280;38616;42.140;24.760;2023-02-01T06:20:58;99790.25;;;4.01;48.68
52719;BME280;38616;42.140;24.760;2023-02-01T06:23:26;99786.97;;;3.99;48.23
52719;BME280;38616;42.140;24.760;2023-02-01T06:25:52;99797.97;;;4.09;47.69
52719;BME280;38616;42.140;24.760;2023-02-01T06:28:18;99798.72;;;4.28;47.21
52719;BME280;38616;42.140;24.760;2023-02-01T06:30:44;99799.84;;;4.56;46.66
52719;BME280;38616;42.140;24.760;2023-02-01T06:33:13;99802.09;;;4.24;47.05
52719;BME280;38616;42.140;24.760;2023-02-01T06:35:41;99804.06;;;4.05;47.25
52719;BME280;38616;42.140;24.760;2023-02-01T06:38:07;99808.28;;;4.01;47.10
52719;BME280;38616;42.140;24.760;2023-02-01T06:40:33;99799.50;;;4.05;47.22
52719;BME280;38616;42.140;24.760;2023-02-01T06:42:58;99785.84;;;4.07;47.32
52719;BME280;38616;42.140;24.760;2023-02-01T06:45:24;99792.16;;;4.01;47.50
52719;BME280;38616;42.140;24.760;2023-02-01T06:47:49;99810.03;;;4.19;46.92
52719;BME280;38616;42.140;24.760;2023-02-01T06:50:15;99797.56;;;4.24;46.25
52719;BME280;38616;42.140;24.760;2023-02-01T06:52:41;99808.41;;;4.65;45.74
52719;BME280;38616;42.140;24.760;2023-02-01T06:55:06;99800.69;;;4.45;45.95
52719;BME280;38616;42.140;24.760;2023-02-01T06:57:32;99802.81;;;4.31;46.30
52719;BME280;38616;42.140;24.760;2023-02-01T06:59:59;99807.25;;;4.37;46.62
52719;BME280;38616;42.140;24.760;2023-02-01T07:02:25;99821.16;;;4.46;45.63
52719;BME280;38616;42.140;24.760;2023-02-01T07:04:50;99814.03;;;4.52;45.92
52719;BME280;38616;42.140;24.760;2023-02-01T07:07:16;99805.84;;;4.35;46.04
52719;BME280;38616;42.140;24.760;2023-02-01T07:09:42;99815.69;;;4.41;46.09
52719;BME280;38616;42.140;24.760;2023-02-01T07:12:07;99832.50;;;4.24;46.57
52719;BME280;38616;42.140;24.760;2023-02-01T07:14:32;99825.75;;;4.34;46.51
52719;BME280;38616;42.140;24.760;2023-02-01T07:16:58;99822.13;;;4.40;46.47
52719;BME280;38616;42.140;24.760;2023-02-01T07:19:23;99824.56;;;4.41;46.17
52719;BME280;38616;42.140;24.760;2023-02-01T07:21:49;99826.19;;;4.42;46.32
52719;BME280;38616;42.140;24.760;2023-02-01T07:24:14;99835.56;;;4.40;46.31
52719;BME280;38616;42.140;24.760;2023-02-01T07:26:40;99838.25;;;4.40;46.15
52719;BME280;38616;42.140;24.760;2023-02-01T07:29:05;99834.97;;;4.38;46.58
52719;BME280;38616;42.140;24.760;2023-02-01T07:31:30;99832.88;;;4.40;46.02
52719;BME280;38616;42.140;24.760;2023-02-01T07:33:56;99836.59;;;4.51;45.93
52719;BME280;38616;42.140;24.760;2023-02-01T07:36:23;99842.69;;;4.34;45.85
52719;BME280;38616;42.140;24.760;2023-02-01T07:38:49;99827.13;;;4.48;45.86
52719;BME280;38616;42.140;24.760;2023-02-01T07:41:16;99834.28;;;4.66;45.71
52719;BME280;38616;42.140;24.760;2023-02-01T07:43:41;99826.94;;;5.02;45.25
52719;BME280;38616;42.140;24.760;2023-02-01T07:46:07;99824.13;;;5.09;44.90
52719;BME280;38616;42.140;24.760;2023-02-01T07:48:32;99828.72;;;4.97;44.69
52719;BME280;38616;42.140;24.760;2023-02-01T07:51:08;99822.38;;;5.03;44.64
52719;BME280;38616;42.140;24.760;2023-02-01T07:53:35;99830.97;;;4.76;45.10
52719;BME280;38616;42.140;24.760;2023-02-01T07:56:01;99827.13;;;4.72;45.47
52719;BME280;38616;42.140;24.760;2023-02-01T07:58:27;99838.44;;;4.98;45.27
52719;BME280;38616;42.140;24.760;2023-02-01T08:00:53;99837.38;;;4.99;45.11
52719;BME280;38616;42.140;24.760;2023-02-01T08:03:37;99847.94;;;4.77;45.84
52719;BME280;38616;42.140;24.760;2023-02-01T08:06:02;99830.09;;;4.99;45.41
52719;BME280;38616;42.140;24.760;2023-02-01T08:08:28;99838.38;;;5.22;45.17
52719;BME280;38616;42.140;24.760;2023-02-01T08:10:57;99835.69;;;5.51;45.17
52719;BME280;38616;42.140;24.760;2023-02-01T08:13:23;99837.44;;;5.16;45.31
52719;BME280;38616;42.140;24.760;2023-02-01T08:15:48;99828.13;;;5.36;45.21
52719;BME280;38616;42.140;24.760;2023-02-01T08:18:14;99837.25;;;5.06;45.89
52719;BME280;38616;42.140;24.760;2023-02-01T08:20:41;99843.56;;;5.11;46.00
52719;BME280;38616;42.140;24.760;2023-02-01T08:23:08;99846.66;;;5.32;45.38
52719;BME280;38616;42.140;24.760;2023-02-01T08:25:34;99842.72;;;5.23;45.90
52719;BME280;38616;42.140;24.760;2023-02-01T08:28:02;99829.72;;;5.48;45.12
52719;BME280;38616;42.140;24.760;2023-02-01T08:30:27;99849.06;;;5.45;45.08
52719;BME280;38616;42.140;24.760;2023-02-01T08:32:53;99844.25;;;5.47;44.98
52719;BME280;38616;42.140;24.760;2023-02-01T08:35:18;99838.25;;;5.57;44.95
52719;BME280;38616;42.140;24.760;2023-02-01T08:37:43;99840.50;;;5.77;44.37
52719;BME280;38616;42.140;24.760;2023-02-01T08:40:09;99847.75;;;5.77;44.54
52719;BME280;38616;42.140;24.760;2023-02-01T08:42:35;99838.44;;;5.39;44.67
52719;BME280;38616;42.140;24.760;2023-02-01T08:45:24;99843.19;;;5.48;45.01
52719;BME280;38616;42.140;24.760;2023-02-01T08:47:50;99860.78;;;5.39;44.68
52719;BME280;38616;42.140;24.760;2023-02-01T08:50:16;99850.38;;;5.43;45.08
52719;BME280;38616;42.140;24.760;2023-02-01T08:52:42;99847.34;;;5.68;45.00
52719;BME280;38616;42.140;24.760;2023-02-01T08:55:08;99836.81;;;5.67;44.41
52719;BME280;38616;42.140;24.760;2023-02-01T08:57:34;99841.47;;;5.88;45.29
52719;BME280;38616;42.140;24.760;2023-02-01T08:59:59;99826.94;;;5.89;44.72
52719;BME280;38616;42.140;24.760;2023-02-01T09:02:25;99842.31;;;5.89;44.56
52719;BME280;38616;42.140;24.760;2023-02-01T09:04:51;99816.03;;;5.50;45.37
52719;BME280;38616;42.140;24.760;2023-02-01T09:07:17;99835.59;;;5.91;44.89
52719;BME280;38616;42.140;24.760;2023-02-01T09:09:44;99840.59;;;5.83;45.33
52719;BME280;38616;42.140;24.760;2023-02-01T09:12:09;99832.97;;;6.09;45.02
52719;BME280;38616;42.140;24.760;2023-02-01T09:14:35;99837.97;;;6.17;45.08
52719;BME280;38616;42.140;24.760;2023-02-01T09:17:00;99823.69;;;6.39;43.79
52719;BME280;38616;42.140;24.760;2023-02-01T09:19:26;99825.06;;;6.58;44.18
52719;BME280;38616;42.140;24.760;2023-02-01T09:21:51;99821.16;;;6.88;43.50
52719;BME280;38616;42.140;24.760;2023-02-01T09:24:16;99803.47;;;6.98;42.84
52719;BME280;38616;42.140;24.760;2023-02-01T09:26:42;99816.84;;;6.87;43.32
52719;BME280;38616;42.140;24.760;2023-02-01T09:29:08;99808.03;;;6.75;44.17
52719;BME280;38616;42.140;24.760;2023-02-01T09:31:38;99806.88;;;7.15;43.37
52719;BME280;38616;42.140;24.760;2023-02-01T09:34:04;99802.75;;;6.85;43.97
52719;BME280;38616;42.140;24.760;2023-02-01T09:36:29;99819.97;;;6.79;43.80
52719;BME280;38616;42.140;24.760;2023-02-01T09:38:55;99798.72;;;6.65;44.63
52719;BME280;38616;42.140;24.760;2023-02-01T09:46:42;99785.72;;;7.07;43.89
52719;BME280;38616;42.140;24.760;2023-02-01T09:49:16;99775.88;;;6.95;43.72
52719;BME280;38616;42.140;24.760;2023-02-01T09:51:45;99773.88;;;6.86;43.83
52719;BME280;38616;42.140;24.760;2023-02-01T09:54:16;99753.25;;;6.79;43.79
52719;BME280;38616;42.140;24.760;2023-02-01T09:56:47;99810.88;;;6.68;43.54
52719;BME280;38616;42.140;24.760;2023-02-01T10:01:49;99782.09;;;6.74;43.43
52719;BME280;38616;42.140;24.760;2023-02-01T10:04:16;99758.00;;;6.89;43.39
52719;BME280;38616;42.140;24.760;2023-02-01T10:09:39;99783.00;;;7.02;42.74
52719;BME280;38616;42.140;24.760;2023-02-01T10:12:26;99779.00;;;7.09;43.17
52719;BME280;38616;42.140;24.760;2023-02-01T10:20:52;99762.97;;;7.25;43.48
52719;BME280;38616;42.140;24.760;2023-02-01T10:26:21;99759.31;;;7.14;43.40
52719;BME280;38616;42.140;24.760;2023-02-01T10:28:58;99759.16;;;7.21;42.64
52719;BME280;38616;42.140;24.760;2023-02-01T10:31:27;99759.25;;;7.04;42.68
52719;BME280;38616;42.140;24.760;2023-02-01T10:33:59;99735.94;;;7.25;42.69
52719;BME280;38616;42.140;24.760;2023-02-01T10:36:35;99736.41;;;7.17;43.52
52719;BME280;38616;42.140;24.760;2023-02-01T10:39:05;99729.31;;;7.10;43.24
52719;BME280;38616;42.140;24.760;2023-02-01T10:41:33;99726.59;;;7.38;43.03
52719;BME280;38616;42.140;24.760;2023-02-01T10:44:00;99762.84;;;7.15;43.28
52719;BME280;38616;42.140;24.760;2023-02-01T10:46:29;99736.56;;;7.05;43.53
52719;BME280;38616;42.140;24.760;2023-02-01T10:49:00;99722.72;;;7.29;42.90
52719;BME280;38616;42.140;24.760;2023-02-01T10:51:42;99720.88;;;7.29;43.13
52719;BME280;38616;42.140;24.760;2023-02-01T10:54:20;99722.50;;;7.30;42.18
52719;BME280;38616;42.140;24.760;2023-02-01T10:56:46;99727.72;;;7.42;42.61
52719;BME280;38616;42.140;24.760;2023-02-01T10:59:30;99721.75;;;7.40;42.46
52719;BME280;38616;42.140;24.760;2023-02-01T11:02:01;99727.22;;;7.45;41.75
52719;BME280;38616;42.140;24.760;2023-02-01T11:04:30;99738.34;;;7.49;41.87
52719;BME280;38616;42.140;24.760;2023-02-01T11:09:40;99730.03;;;7.56;42.33
52719;BME280;38616;42.140;24.760;2023-02-01T11:12:22;99706.09;;;7.42;42.23
52719;BME280;38616;42.140;24.760;2023-02-01T11:14:48;99692.59;;;7.42;42.38
52719;BME280;38616;42.140;24.760;2023-02-01T11:19:44;99693.41;;;7.43;42.15
52719;BME280;38616;42.140;24.760;2023-02-01T11:22:11;99668.59;;;7.51;41.86
52719;BME280;38616;42.140;24.760;2023-02-01T11:24:37;99686.44;;;7.47;42.55
52719;BME280;38616;42.140;24.760;2023-02-01T11:27:14;99665.88;;;7.51;41.69
52719;BME280;38616;42.140;24.760;2023-02-01T11:29:50;99695.66;;;7.56;42.00
52719;BME280;38616;42.140;24.760;2023-02-01T11:32:17;99682.78;;;7.68;41.92
52719;BME280;38616;42.140;24.760;2023-02-01T11:34:47;99680.00;;;7.58;41.98
52719;BME280;38616;42.140;24.760;2023-02-01T11:37:19;99684.22;;;7.76;41.61
52719;BME280;38616;42.140;24.760;2023-02-01T11:39:54;99681.94;;;7.63;41.87
52719;BME280;38616;42.140;24.760;2023-02-01T11:42:24;99670.69;;;7.76;41.72
52719;BME280;38616;42.140;24.760;2023-02-01T11:44:50;99671.31;;;7.89;41.80
52719;BME280;38616;42.140;24.760;2023-02-01T11:47:30;99674.31;;;7.92;41.22
52719;BME280;38616;42.140;24.760;2023-02-01T11:50:01;99677.31;;;8.01;41.82
52719;BME280;38616;42.140;24.760;2023-02-01T11:57:46;99686.44;;;7.84;41.55
52719;BME280;38616;42.140;24.760;2023-02-01T12:12:00;99704.91;;;7.93;41.20
52719;BME280;38616;42.140;24.760;2023-02-01T12:17:54;99640.91;;;8.14;41.02
52719;BME280;38616;42.140;24.760;2023-02-01T12:23:14;99641.25;;;8.33;40.03
52719;BME280;38616;42.140;24.760;2023-02-01T12:31:30;99649.63;;;8.26;40.01
52719;BME280;38616;42.140;24.760;2023-02-01T12:34:19;99617.94;;;8.27;40.81
52719;BME280;38616;42.140;24.760;2023-02-01T12:37:11;99649.56;;;8.16;40.07
52719;BME280;38616;42.140;24.760;2023-02-01T12:39:53;99633.03;;;8.12;39.97
52719;BME280;38616;42.140;24.760;2023-02-01T12:42:27;99625.84;;;8.34;39.84
52719;BME280;38616;42.140;24.760;2023-02-01T12:47:53;99621.25;;;8.45;39.11
52719;BME280;38616;42.140;24.760;2023-02-01T12:50:26;99636.78;;;8.70;39.34
52719;BME280;38616;42.140;24.760;2023-02-01T12:52:55;99655.75;;;8.70;38.94
52719;BME280;38616;42.140;24.760;2023-02-01T12:55:38;99627.28;;;8.57;38.78
52719;BME280;38616;42.140;24.760;2023-02-01T13:01:12;99654.69;;;8.71;38.75
52719;BME280;38616;42.140;24.760;2023-02-01T13:03:52;99654.09;;;8.64;38.90
52719;BME280;38616;42.140;24.760;2023-02-01T13:06:41;99656.97;;;8.36;39.14
52719;BME280;38616;42.140;24.760;2023-02-01T13:09:28;99672.63;;;8.29;39.66
52719;BME280;38616;42.140;24.760;2023-02-01T13:12:07;99666.66;;;8.27;39.86
52719;BME280;38616;42.140;24.760;2023-02-01T13:15:11;99654.69;;;8.18;39.86
52719;BME280;38616;42.140;24.760;2023-02-01T13:17:31;99665.56;;;8.23;39.49
52719;BME280;38616;42.140;24.760;2023-02-01T13:20:31;99652.06;;;8.33;39.62
52719;BME280;38616;42.140;24.760;2023-02-01T13:23:23;99660.25;;;8.43;39.92
52719;BME280;38616;42.140;24.760;2023-02-01T13:25:51;99664.28;;;8.46;40.12
52719;BME280;38616;42.140;24.760;2023-02-01T13:33:26;99664.63;;;8.50;39.76
52719;BME280;38616;42.140;24.760;2023-02-01T13:36:06;99654.41;;;8.67;39.08
52719;BME280;38616;42.140;24.760;2023-02-01T13:38:44;99660.06;;;8.66;38.46
52719;BME280;38616;42.140;24.760;2023-02-01T13:41:50;99664.72;;;8.70;38.45
52719;BME280;38616;42.140;24.760;2023-02-01T13:44:38;99654.41;;;8.67;38.46
52719;BME280;38616;42.140;24.760;2023-02-01T13:47:18;99661.16;;;8.70;38.95
52719;BME280;38616;42.140;24.760;2023-02-01T13:49:47;99660.38;;;8.85;38.59
52719;BME280;38616;42.140;24.760;2023-02-01T13:52:28;99662.00;;;8.70;38.58
52719;BME280;38616;42.140;24.760;2023-02-01T13:55:24;99675.53;;;8.65;38.64
52719;BME280;38616;42.140;24.760;2023-02-01T13:57:49;99666.88;;;8.68;38.42
52719;BME280;38616;42.140;24.760;2023-02-01T14:00:36;99661.50;;;8.94;38.09
52719;BME280;38616;42.140;24.760;2023-02-01T14:13:36;99664.72;;;8.76;37.84
52719;BME280;38616;42.140;24.760;2023-02-01T14:26:20;99655.19;;;8.68;37.37
52719;BME280;38616;42.140;24.760;2023-02-01T14:28:57;99653.91;;;8.96;37.65
52719;BME280;38616;42.140;24.760;2023-02-01T14:31:35;99653.13;;;8.96;37.45
52719;BME280;38616;42.140;24.760;2023-02-01T14:34:11;99661.47;;;8.79;37.14
52719;BME280;38616;42.140;24.760;2023-02-01T14:36:44;99650.06;;;8.61;37.72
52719;BME280;38616;42.140;24.760;2023-02-01T14:41:55;99651.41;;;8.69;37.60
52719;BME280;38616;42.140;24.760;2023-02-01T14:44:30;99631.66;;;8.63;37.73
52719;BME280;38616;42.140;24.760;2023-02-01T14:49:33;99655.78;;;8.80;38.21
52719;BME280;38616;42.140;24.760;2023-02-01T14:52:02;99662.84;;;8.92;37.86
52719;BME280;38616;42.140;24.760;2023-02-01T14:54:30;99660.63;;;8.68;38.24
52719;BME280;38616;42.140;24.760;2023-02-01T14:56:57;99669.06;;;8.77;38.08
52719;BME280;38616;42.140;24.760;2023-02-01T14:59:25;99663.09;;;8.69;38.14
52719;BME280;38616;42.140;24.760;2023-02-01T15:01:58;99668.91;;;8.46;38.11
52719;BME280;38616;42.140;24.760;2023-02-01T15:04:27;99661.81;;;8.34;38.81
52719;BME280;38616;42.140;24.760;2023-02-01T15:06:57;99665.97;;;8.52;38.37
52719;BME280;38616;42.140;24.760;2023-02-01T15:09:38;99673.31;;;8.57;38.53
52719;BME280;38616;42.140;24.760;2023-02-01T15:14:41;99673.41;;;8.19;38.96
52719;BME280;38616;42.140;24.760;2023-02-01T15:17:28;99661.78;;;8.24;38.48